Terminal Aerodrome Forecast
Issued by NWS Jackson, MS

Home | Current Version | Previous Version | Text Only | Print | Product List | Glossary On
Versions: 1 2 3 4 5 6 7 8 9 10 11 12 13 14
000
FTUS44 KJAN 220250 AAA
TAFGLH
TAF AMD
KGLH 220250Z 2203/2224 13011KT P6SM -SHRA VCTS SCT035CB OVC090
     FM220400 21015G25KT 2SM +TSRAGS BR BKN035CB OVC050
     FM220600 21009KT 6SM -SHRA VCTS SCT035 BKN050CB
     FM220700 20007KT P6SM -RA OVC015
     FM221400 20014KT P6SM -SHRA OVC050
     FM222000 25017G24KT P6SM -RA OVC025=

USA.gov is the U.S. government's official web portal to all federal, state and local government web resources and services.